Houghton, Michigan
Current Conditions -  °F | °C
As of 7:53 PM on Thursday 27 Nov 2014 (Local Time) from KCMX Reporting Station
Light Snow Light Snow  
Wind Chill:   Ceiling: 2600
Heat Index:   Visibility: 3mi
Dew Point:   Wind: 3mph
Humidity: 77%   Direction: 220°SW
Pressure: 30.29"   Gusts: NA
Location:  47.12°N, 88.57°W
Report Text: KCMX 280053Z AUTO 22003KT 3SM -SN OVC026 M13/M16 A3029 RMK AO2 SLP285 P0000 T11281161
Loading
Personal Weather Stations






























Interactive Weather Map New forecast layout! Learn more

10-Day Weather Forecast

Advertisements
Track Severe Weather on mobile